Time;durP1;ratioP1;P1;durP2;ratioP2;P2;SDS_P1;SDS_P2;PMS_P1;PMS_P2;Temp;Humidity;BMP_temperature;BMP_pressure;BME280_temperature;BME280_humidity;BME280_pressure;Samples;Min_cycle;Max_cycle;Signal;HPM_P1;HPM_P2
2023/05/22 00:02:07;;;;;;;15.13;11.90;;;17.60;1.00;;;;;;5017546;28;20583;-51
2023/05/22 00:04:32;;;;;;;19.80;13.40;;;17.60;1.00;;;;;;5017336;28;20954;-50
2023/05/22 00:06:58;;;;;;;15.67;12.20;;;17.60;1.00;;;;;;5020451;28;20186;-51
2023/05/22 00:09:25;;;;;;;16.20;12.80;;;17.60;1.00;;;;;;5025645;28;21614;-51
2023/05/22 00:11:50;;;;;;;16.30;12.50;;;17.50;1.00;;;;;;5021459;28;20191;-51
2023/05/22 00:14:16;;;;;;;13.73;12.33;;;17.50;1.00;;;;;;5023775;28;20449;-51
2023/05/22 00:16:42;;;;;;;14.33;12.50;;;17.40;1.00;;;;;;5022393;28;20273;-51
2023/05/22 00:19:11;;;;;;;13.23;11.90;;;17.40;1.00;;;;;;5020970;28;20187;-52
2023/05/22 00:21:38;;;;;;;15.40;12.70;;;17.30;1.00;;;;;;5016325;28;20448;-50
2023/05/22 00:24:04;;;;;;;14.37;10.67;;;17.30;1.00;;;;;;5021249;28;20480;-50
2023/05/22 00:26:30;;;;;;;14.07;12.33;;;17.30;1.00;;;;;;5016683;28;20882;-51
2023/05/22 00:28:55;;;;;;;13.10;11.80;;;17.20;1.00;;;;;;5016261;28;20613;-51
2023/05/22 00:31:21;;;;;;;12.83;11.37;;;17.20;1.00;;;;;;5016445;28;20194;-51
2023/05/22 00:33:47;;;;;;;12.90;11.60;;;17.20;1.00;;;;;;5017807;28;20190;-52
2023/05/22 00:36:13;;;;;;;15.80;12.17;;;17.10;1.00;;;;;;5016880;28;20190;-49
2023/05/22 00:38:38;;;;;;;18.57;12.03;;;17.10;1.00;;;;;;5016074;28;20206;-51
2023/05/22 00:41:05;;;;;;;23.40;12.10;;;17.10;1.00;;;;;;5016954;28;20286;-51
2023/05/22 00:43:32;;;;;;;13.73;12.10;;;17.00;1.00;;;;;;5016050;28;20216;-52
2023/05/22 00:45:57;;;;;;;16.13;11.77;;;17.00;1.00;;;;;;5020277;28;20483;-52
2023/05/22 00:48:23;;;;;;;13.40;12.10;;;17.00;1.00;;;;;;5020169;28;20549;-52
2023/05/22 00:50:49;;;;;;;13.20;11.10;;;17.00;1.00;;;;;;5016914;28;20230;-51
2023/05/22 00:53:18;;;;;;;12.80;11.37;;;17.00;1.00;;;;;;5023312;28;20445;-51
2023/05/22 00:55:44;;;;;;;13.20;11.80;;;16.90;1.00;;;;;;5018792;28;21395;-50
2023/05/22 00:58:15;;;;;;;13.10;11.27;;;17.00;1.00;;;;;;5021652;28;20429;-50
2023/05/22 01:00:41;;;;;;;13.60;11.40;;;17.10;1.00;;;;;;5016364;28;20191;-51
2023/05/22 01:03:08;;;;;;;13.83;10.77;;;17.10;1.00;;;;;;5015620;28;20453;-51
2023/05/22 01:05:34;;;;;;;13.40;10.80;;;17.00;1.00;;;;;;5016404;28;20265;-51
2023/05/22 01:08:00;;;;;;;14.23;11.07;;;17.00;1.00;;;;;;5016087;28;20487;-51
2023/05/22 01:10:27;;;;;;;14.50;10.17;;;16.90;1.00;;;;;;5021626;28;20438;-50
2023/05/22 01:13:37;;;;;;;12.80;10.50;;;17.00;1.00;;;;;;5019740;28;20198;-51
2023/05/22 01:16:18;;;;;;;12.53;11.20;;;16.90;1.00;;;;;;5014195;28;20464;-50
2023/05/22 01:19:14;;;;;;;17.90;11.87;;;16.90;1.00;;;;;;5015893;28;20444;-51
2023/05/22 01:22:27;;;;;;;14.20;11.07;;;16.90;1.00;;;;;;5016030;28;20942;-52
2023/05/22 01:25:15;;;;;;;12.70;10.70;;;16.80;1.00;;;;;;5009645;28;20477;-51
2023/05/22 01:28:00;;;;;;;14.70;10.90;;;16.80;1.00;;;;;;5019465;28;20458;-50
2023/05/22 01:31:01;;;;;;;18.40;10.40;;;16.70;1.00;;;;;;5015851;28;20508;-52
2023/05/22 01:33:30;;;;;;;12.00;10.83;;;16.70;1.00;;;;;;5016161;28;20454;-52
2023/05/22 01:36:00;;;;;;;12.37;11.00;;;16.60;1.00;;;;;;5019165;28;20449;-51
2023/05/22 01:38:26;;;;;;;13.73;11.60;;;16.60;1.00;;;;;;5019585;28;20441;-51
2023/05/22 01:40:53;;;;;;;16.20;11.43;;;16.50;1.00;;;;;;5015646;28;20516;-52
2023/05/22 01:43:19;;;;;;;12.83;11.30;;;16.50;1.00;;;;;;5015697;28;20449;-51
2023/05/22 01:45:45;;;;;;;12.30;11.20;;;16.50;1.00;;;;;;5015932;28;20477;-50
2023/05/22 01:48:11;;;;;;;13.07;11.03;;;16.50;1.00;;;;;;5015799;28;20517;-50
2023/05/22 01:50:38;;;;;;;17.13;11.80;;;16.40;1.00;;;;;;5015495;28;20635;-51
2023/05/22 01:53:12;;;;;;;12.33;10.90;;;16.40;1.00;;;;;;5015826;28;20190;-51
2023/05/22 01:56:05;;;;;;;16.30;11.93;;;16.30;1.00;;;;;;5015415;28;20845;-51
2023/05/22 01:58:40;;;;;;;13.43;12.03;;;16.30;1.00;;;;;;5015869;28;20446;-50
2023/05/22 02:01:08;;;;;;;14.40;11.70;;;16.30;1.00;;;;;;5020539;28;20453;-51
2023/05/22 02:03:36;;;;;;;11.73;10.53;;;16.30;1.00;;;;;;5019246;28;20963;-51
2023/05/22 02:06:06;;;;;;;14.70;11.77;;;16.20;1.00;;;;;;5023149;28;20535;-51
2023/05/22 02:08:34;;;;;;;14.10;12.60;;;16.20;1.00;;;;;;5020645;28;20975;-50
2023/05/22 02:11:01;;;;;;;15.10;11.20;;;16.10;1.00;;;;;;5020011;28;20788;-51
2023/05/22 02:13:27;;;;;;;19.03;11.93;;;16.00;1.00;;;;;;5022508;28;20489;-51
2023/05/22 02:15:54;;;;;;;12.07;10.87;;;16.10;1.00;;;;;;5020580;28;20432;-50
2023/05/22 02:18:28;;;;;;;17.63;11.60;;;16.10;1.00;;;;;;5016960;28;20190;-50
2023/05/22 02:20:57;;;;;;;18.00;12.27;;;16.00;1.00;;;;;;5018851;28;20441;-51
2023/05/22 02:23:23;;;;;;;14.20;11.20;;;15.90;1.00;;;;;;5018872;28;20443;-51
2023/05/22 02:25:49;;;;;;;13.17;10.67;;;15.90;4.50;;;;;;5019265;28;20572;-49
2023/05/22 02:28:14;;;;;;;14.03;11.20;;;15.90;19.40;;;;;;5019557;28;20925;-49
2023/05/22 02:30:40;;;;;;;16.93;10.87;;;16.00;31.30;;;;;;5018940;28;20190;-51
2023/05/22 02:33:08;;;;;;;13.10;11.40;;;16.00;3.20;;;;;;5019086;28;20191;-50
2023/05/22 02:35:33;;;;;;;14.17;12.17;;;16.00;1.00;;;;;;5019129;28;20682;-51
2023/05/22 02:37:59;;;;;;;13.53;11.33;;;15.90;1.50;;;;;;5020760;28;20448;-50
2023/05/22 02:40:25;;;;;;;13.40;12.00;;;15.90;1.00;;;;;;5019764;28;20648;-51
2023/05/22 02:42:50;;;;;;;13.93;12.00;;;15.80;1.00;;;;;;5022635;28;20194;-51
2023/05/22 02:45:16;;;;;;;12.63;11.30;;;15.80;15.10;;;;;;5023731;28;20696;-50
2023/05/22 02:47:41;;;;;;;13.40;11.60;;;15.70;28.00;;;;;;5022165;28;20190;-50
2023/05/22 02:50:07;;;;;;;16.80;11.67;;;15.70;40.80;;;;;;5022096;28;20540;-51
2023/05/22 02:52:33;;;;;;;14.13;11.70;;;15.60;61.70;;;;;;5022675;28;20236;-50
2023/05/22 02:54:59;;;;;;;13.70;11.70;;;15.60;65.70;;;;;;5022381;28;20483;-50
2023/05/22 02:57:25;;;;;;;12.67;10.73;;;15.60;71.70;;;;;;5019136;28;20838;-51
2023/05/22 02:59:51;;;;;;;14.03;10.73;;;15.60;70.90;;;;;;5018861;28;20452;-50
2023/05/22 03:02:17;;;;;;;17.93;11.77;;;15.60;82.90;;;;;;5017715;28;20938;-49
2023/05/22 03:04:43;;;;;;;19.27;11.03;;;15.70;58.50;;;;;;5018680;28;20236;-50
2023/05/22 03:07:08;;;;;;;15.20;10.43;;;15.70;24.60;;;;;;5018225;28;20643;-50
2023/05/22 03:09:34;;;;;;;14.20;11.70;;;15.70;16.80;;;;;;5017945;28;20209;-50
2023/05/22 03:12:00;;;;;;;15.17;11.43;;;15.70;12.00;;;;;;5018395;28;20199;-49
2023/05/22 03:14:26;;;;;;;16.53;11.67;;;15.80;1.00;;;;;;5017859;28;20197;-50
2023/05/22 03:16:53;;;;;;;13.10;11.20;;;15.80;1.00;;;;;;5021552;28;20195;-50
2023/05/22 03:19:19;;;;;;;14.17;11.00;;;15.80;1.00;;;;;;5027037;28;20193;-50
2023/05/22 03:21:44;;;;;;;13.03;11.50;;;15.80;1.00;;;;;;5018272;28;20429;-50
2023/05/22 03:24:13;;;;;;;11.77;10.23;;;15.80;1.00;;;;;;5021397;28;20704;-50
2023/05/22 03:26:39;;;;;;;11.70;10.50;;;15.80;1.00;;;;;;5022427;28;20280;-49
2023/05/22 03:29:05;;;;;;;11.67;10.47;;;15.80;1.00;;;;;;5016574;28;21023;-50
2023/05/22 03:31:32;;;;;;;13.83;10.30;;;15.80;1.00;;;;;;5021880;28;20215;-50
2023/05/22 03:33:57;;;;;;;13.57;9.93;;;15.90;1.00;;;;;;5022258;28;20190;-49
2023/05/22 03:36:24;;;;;;;12.40;10.10;;;15.90;1.00;;;;;;5017167;28;20452;-50
2023/05/22 03:38:49;;;;;;;13.90;9.93;;;15.90;1.00;;;;;;5017620;28;20189;-51
2023/05/22 03:41:15;;;;;;;11.27;10.07;;;16.00;1.00;;;;;;5017572;28;20783;-50
2023/05/22 03:43:41;;;;;;;11.17;10.00;;;16.00;1.00;;;;;;5018102;28;20190;-50
2023/05/22 03:46:07;;;;;;;11.77;10.10;;;16.10;1.00;;;;;;5017289;28;20819;-51
2023/05/22 03:48:33;;;;;;;12.10;10.90;;;16.20;1.00;;;;;;5017672;28;20195;-49
2023/05/22 03:50:58;;;;;;;11.60;9.50;;;16.30;1.00;;;;;;5017454;28;20231;-50
2023/05/22 03:53:24;;;;;;;12.20;10.20;;;16.30;1.00;;;;;;5018245;28;20341;-49
2023/05/22 03:55:49;;;;;;;12.23;9.57;;;16.40;1.00;;;;;;5021176;28;20191;-50
2023/05/22 03:58:15;;;;;;;10.50;9.40;;;16.40;1.00;;;;;;5021287;28;20266;-50
2023/05/22 04:00:41;;;;;;;10.43;9.10;;;16.40;1.00;;;;;;5025898;28;20710;-51
2023/05/22 04:03:11;;;;;;;13.30;9.23;;;16.40;1.00;;;;;;5017293;28;20643;-50
2023/05/22 04:05:40;;;;;;;14.03;9.93;;;16.50;1.00;;;;;;5016778;28;20214;-51
2023/05/22 04:08:06;;;;;;;11.53;9.67;;;16.60;1.00;;;;;;5021324;28;20441;-50
2023/05/22 04:10:31;;;;;;;10.80;8.93;;;16.60;1.00;;;;;;5021005;28;20437;-51
2023/05/22 04:12:58;;;;;;;12.10;9.50;;;16.60;1.00;;;;;;5021591;28;20541;-50
2023/05/22 04:15:24;;;;;;;12.43;9.50;;;16.70;1.00;;;;;;5021221;28;20685;-51
2023/05/22 04:17:50;;;;;;;11.37;9.67;;;16.80;1.00;;;;;;5016721;28;20438;-50
2023/05/22 04:20:15;;;;;;;11.60;9.40;;;16.80;1.00;;;;;;5017087;28;20666;-51
2023/05/22 04:22:41;;;;;;;13.47;9.63;;;16.90;1.00;;;;;;5017256;28;20189;-51
2023/05/22 04:25:07;;;;;;;9.73;8.70;;;17.10;1.00;;;;;;5016577;28;20219;-51
2023/05/22 04:27:33;;;;;;;15.47;9.27;;;17.20;1.00;;;;;;5016237;28;20226;-51
2023/05/22 04:30:01;;;;;;;13.90;9.83;;;17.30;1.00;;;;;;5017549;28;20191;-51
2023/05/22 04:32:28;;;;;;;14.10;9.13;;;17.40;1.00;;;;;;5016878;28;20430;-50
2023/05/22 04:34:57;;;;;;;9.70;8.43;;;17.50;1.00;;;;;;5022632;28;20440;-50
2023/05/22 04:37:23;;;;;;;13.10;8.80;;;17.60;1.00;;;;;;5021925;28;20946;-52
2023/05/22 04:39:52;;;;;;;10.50;8.87;;;17.70;1.00;;;;;;5020707;28;20443;-51
2023/05/22 04:42:18;;;;;;;11.37;8.40;;;17.70;1.00;;;;;;5021179;28;20450;-50
2023/05/22 04:44:43;;;;;;;10.87;8.67;;;17.80;1.00;;;;;;5023180;28;20484;-50
2023/05/22 04:47:13;;;;;;;15.27;8.60;;;17.90;1.00;;;;;;5016240;28;20444;-51
2023/05/22 04:49:41;;;;;;;12.03;8.03;;;18.00;1.00;;;;;;5020827;28;20646;-51
2023/05/22 04:52:06;;;;;;;13.80;8.63;;;18.00;1.00;;;;;;5015876;28;20833;-52
2023/05/22 04:54:33;;;;;;;10.33;7.50;;;18.10;1.00;;;;;;5016160;28;20450;-50
2023/05/22 04:56:59;;;;;;;9.33;8.43;;;18.20;1.00;;;;;;5016856;28;20657;-53
2023/05/22 04:59:25;;;;;;;9.53;8.00;;;18.20;1.00;;;;;;5016056;28;20453;-51
2023/05/22 05:01:51;;;;;;;12.50;8.27;;;18.30;1.00;;;;;;5016662;28;20470;-51
2023/05/22 05:04:17;;;;;;;10.93;7.90;;;18.30;1.00;;;;;;5019897;28;20521;-50
2023/05/22 05:06:43;;;;;;;7.97;7.23;;;18.40;1.00;;;;;;5016713;28;20442;-53
2023/05/22 05:09:09;;;;;;;10.67;7.73;;;18.40;1.00;;;;;;5016027;28;20440;-50
2023/05/22 05:11:35;;;;;;;9.63;7.77;;;18.50;99.90;;;;;;5020138;28;20443;-52
2023/05/22 05:14:01;;;;;;;8.83;7.93;;;18.50;99.90;;;;;;5019053;28;20440;-50
2023/05/22 05:16:26;;;;;;;10.50;7.50;;;18.50;99.90;;;;;;5017696;28;20199;-52
2023/05/22 05:18:52;;;;;;;10.07;7.40;;;18.50;99.90;;;;;;5015644;28;20225;-51
2023/05/22 05:21:20;;;;;;;9.87;8.20;;;18.60;99.90;;;;;;5015931;28;20197;-51
2023/05/22 05:23:46;;;;;;;9.63;7.43;;;18.60;99.90;;;;;;5015830;28;20205;-51
2023/05/22 05:26:11;;;;;;;10.53;8.00;;;18.60;99.90;;;;;;5015703;28;20482;-51
2023/05/22 05:28:37;;;;;;;7.27;6.60;;;18.70;99.90;;;;;;5016089;28;20534;-51
2023/05/22 05:31:03;;;;;;;9.70;7.43;;;18.70;99.90;;;;;;5015446;28;20191;-50
2023/05/22 05:33:28;;;;;;;12.50;7.20;;;18.80;99.90;;;;;;5015950;28;20197;-53
2023/05/22 05:35:54;;;;;;;9.90;7.00;;;18.90;99.90;;;;;;5020041;28;20454;-53
2023/05/22 05:38:20;;;;;;;8.47;7.20;;;19.00;99.90;;;;;;5015510;28;20248;-51
2023/05/22 05:40:45;;;;;;;10.47;7.37;;;19.10;99.90;;;;;;5015845;28;20298;-52
2023/05/22 05:43:14;;;;;;;8.20;6.80;;;19.20;99.90;;;;;;5016356;28;20191;-50
2023/05/22 05:45:42;;;;;;;9.20;7.00;;;19.30;99.90;;;;;;5016326;28;20314;-51
2023/05/22 05:48:08;;;;;;;8.57;7.20;;;19.40;99.90;;;;;;5015243;28;20453;-52
2023/05/22 05:50:34;;;;;;;7.33;6.60;;;19.60;99.90;;;;;;5014983;28;21005;-54
2023/05/22 05:53:00;;;;;;;9.00;7.37;;;19.70;99.90;;;;;;5017512;28;20270;-51
2023/05/22 05:55:25;;;;;;;8.07;6.87;;;19.80;99.90;;;;;;5019888;28;20223;-51
2023/05/22 05:57:51;;;;;;;10.83;7.00;;;20.00;99.90;;;;;;5019325;28;20991;-52
2023/05/22 06:00:17;;;;;;;8.53;6.90;;;20.00;99.90;;;;;;5019634;28;20187;-53
2023/05/22 06:02:44;;;;;;;12.57;7.20;;;20.20;99.90;;;;;;5020066;28;20227;-52
2023/05/22 06:05:10;;;;;;;9.37;5.90;;;20.20;99.90;;;;;;5019086;28;20542;-52
2023/05/22 06:07:38;;;;;;;8.93;6.30;;;20.30;99.90;;;;;;5019298;28;20919;-53
2023/05/22 06:10:05;;;;;;;8.30;6.97;;;20.30;99.90;;;;;;5019814;28;20199;-52
2023/05/22 06:12:31;;;;;;;11.23;5.97;;;20.30;99.90;;;;;;5019972;28;20442;-52
2023/05/22 06:14:57;;;;;;;7.40;6.60;;;20.40;99.90;;;;;;5019219;28;20967;-52
2023/05/22 06:17:22;;;;;;;8.10;6.50;;;20.30;99.90;;;;;;5019180;28;20187;-51
2023/05/22 06:19:48;;;;;;;11.70;6.60;;;20.30;99.90;;;;;;5019593;28;20183;-52
2023/05/22 06:22:14;;;;;;;10.00;6.43;;;20.30;99.90;;;;;;5018648;28;20195;-52
2023/05/22 06:24:39;;;;;;;9.00;6.27;;;20.30;99.90;;;;;;5019428;28;20669;-52
2023/05/22 06:27:05;;;;;;;8.00;5.87;;;20.30;99.90;;;;;;5021255;28;20325;-51
2023/05/22 06:29:31;;;;;;;7.70;5.90;;;20.40;99.90;;;;;;5020488;28;20187;-53
2023/05/22 06:31:57;;;;;;;7.10;6.13;;;20.40;99.90;;;;;;5018935;28;20194;-52
2023/05/22 06:34:24;;;;;;;6.73;6.07;;;20.40;99.90;;;;;;5023678;28;20186;-52
2023/05/22 06:36:49;;;;;;;6.97;6.27;;;20.50;99.90;;;;;;5019160;28;20644;-52
2023/05/22 06:39:16;;;;;;;8.17;6.50;;;20.60;99.90;;;;;;5018588;28;20456;-52
2023/05/22 06:41:42;;;;;;;6.93;5.90;;;20.70;99.90;;;;;;5019308;28;20198;-52
2023/05/22 06:44:08;;;;;;;11.43;6.10;;;20.80;99.90;;;;;;5018420;28;20437;-52
2023/05/22 06:46:34;;;;;;;9.03;5.97;;;20.90;99.90;;;;;;5018805;28;21107;-51
2023/05/22 06:48:59;;;;;;;8.80;5.87;;;21.00;99.90;;;;;;5018732;28;20197;-51
2023/05/22 06:51:25;;;;;;;8.67;5.47;;;21.10;99.90;;;;;;5018347;28;20329;-52
2023/05/22 06:53:51;;;;;;;8.10;6.17;;;21.20;99.90;;;;;;5018835;28;20184;-52
2023/05/22 06:56:17;;;;;;;6.50;5.70;;;21.40;99.90;;;;;;5019750;28;20251;-51
2023/05/22 06:58:43;;;;;;;10.63;6.03;;;21.50;99.90;;;;;;5018907;28;20191;-52
2023/05/22 07:01:09;;;;;;;6.50;5.60;;;21.90;99.90;;;;;;5021165;28;20433;-52
2023/05/22 07:03:34;;;;;;;9.80;5.97;;;22.30;99.90;;;;;;4957493;28;20205;-53
2023/05/22 07:06:01;;;;;;;7.63;6.10;;;22.80;99.90;;;;;;5014935;28;20222;-52
2023/05/22 07:08:26;;;;;;;7.30;5.30;;;23.30;99.90;;;;;;5022624;28;20417;-51
2023/05/22 07:10:52;;;;;;;11.10;5.73;;;23.80;99.90;;;;;;5018746;28;20529;-51
2023/05/22 07:13:17;;;;;;;10.97;5.57;;;24.10;99.90;;;;;;5018907;28;20198;-51
2023/05/22 07:15:43;;;;;;;11.17;5.40;;;24.40;99.90;;;;;;5018305;28;20253;-51
2023/05/22 07:18:09;;;;;;;5.70;5.20;;;24.60;99.90;;;;;;5021777;28;20247;-51
2023/05/22 07:20:36;;;;;;;9.13;5.30;;;24.70;99.90;;;;;;5019478;28;20199;-51
2023/05/22 07:23:01;;;;;;;83.30;58.63;;;24.70;99.90;;;;;;5018436;28;20233;-51
2023/05/22 07:25:27;;;;;;;12.60;9.43;;;24.90;99.90;;;;;;5024663;28;20567;-51
2023/05/22 07:27:54;;;;;;;31.83;28.30;;;25.20;99.90;;;;;;5018344;28;20213;-51
2023/05/22 07:30:20;;;;;;;7.67;5.27;;;25.50;99.90;;;;;;5024123;28;20496;-51
2023/05/22 07:32:46;;;;;;;5.50;5.00;;;25.80;99.90;;;;;;5020533;28;20444;-52
2023/05/22 07:35:12;;;;;;;9.40;5.53;;;25.90;99.90;;;;;;5021766;28;20765;-51
2023/05/22 07:37:38;;;;;;;7.00;4.70;;;26.10;99.90;;;;;;5018220;28;20976;-51
2023/05/22 07:40:08;;;;;;;6.77;4.83;;;26.40;99.90;;;;;;5019366;28;20519;-50
2023/05/22 07:42:34;;;;;;;7.73;5.57;;;26.90;99.90;;;;;;5018277;28;20683;-51
2023/05/22 07:45:00;;;;;;;6.33;4.50;;;27.30;99.90;;;;;;5017281;28;20485;-52
2023/05/22 07:47:26;;;;;;;7.22;5.00;;;27.60;99.90;;;;;;5018578;28;20434;-51
2023/05/22 07:49:51;;;;;;;7.50;5.03;;;27.60;99.90;;;;;;5020603;28;20196;-51
2023/05/22 07:52:17;;;;;;;5.10;4.70;;;27.60;99.90;;;;;;5019085;28;20232;-51
2023/05/22 07:54:43;;;;;;;6.23;5.00;;;27.50;99.90;;;;;;5017890;28;20184;-51
2023/05/22 07:57:11;;;;;;;5.77;5.17;;;27.30;99.90;;;;;;5017840;28;20188;-52
2023/05/22 07:59:37;;;;;;;8.80;5.20;;;27.20;99.90;;;;;;5023017;28;20323;-50
2023/05/22 08:02:02;;;;;;;5.85;4.10;;;27.20;99.90;;;;;;5031440;28;20515;-51
2023/05/22 08:04:28;;;;;;;7.93;4.67;;;27.00;99.90;;;;;;5019760;28;20208;-51
2023/05/22 08:06:54;;;;;;;7.20;5.03;;;27.00;99.90;;;;;;5018049;28;20196;-51
2023/05/22 08:09:20;;;;;;;6.80;4.70;;;27.40;99.90;;;;;;5017658;28;20975;-51
2023/05/22 08:11:46;;;;;;;10.03;4.57;;;27.50;99.90;;;;;;5020249;28;20183;-51
2023/05/22 08:14:11;;;;;;;7.17;4.50;;;27.60;99.90;;;;;;5022091;28;20636;-49
2023/05/22 08:16:37;;;;;;;4.83;4.27;;;27.80;99.90;;;;;;5020871;28;20197;-49
2023/05/22 08:19:05;;;;;;;7.70;4.50;;;28.20;99.90;;;;;;5022421;28;20519;-49
2023/05/22 08:21:33;;;;;;;8.33;4.67;;;28.40;99.90;;;;;;5023247;28;20196;-48
2023/05/22 08:23:59;;;;;;;5.68;4.40;;;28.40;99.90;;;;;;5018061;28;20429;-49
2023/05/22 08:26:25;;;;;;;8.40;4.30;;;28.60;99.90;;;;;;5020621;28;20451;-48
2023/05/22 08:28:51;;;;;;;6.73;4.20;;;28.90;99.90;;;;;;5019922;28;20184;-47
2023/05/22 08:31:17;;;;;;;7.93;3.90;;;29.30;99.90;;;;;;5015532;28;20490;-47
2023/05/22 08:33:43;;;;;;;7.63;4.60;;;29.50;99.90;;;;;;5021752;28;20537;-47
2023/05/22 08:36:08;;;;;;;7.83;4.70;;;29.90;99.90;;;;;;5017033;28;20207;-47
2023/05/22 08:38:34;;;;;;;6.73;4.50;;;30.40;99.90;;;;;;5018691;28;20198;-46
2023/05/22 08:41:00;;;;;;;5.37;4.57;;;30.60;99.90;;;;;;5016696;28;20748;-47
2023/05/22 08:43:27;;;;;;;6.00;4.43;;;30.80;99.90;;;;;;5018116;28;20188;-48
2023/05/22 08:46:02;;;;;;;10.33;4.20;;;30.90;99.90;;;;;;5016420;28;20235;-47
2023/05/22 08:48:30;;;;;;;8.10;4.15;;;31.00;99.90;;;;;;5019965;28;20506;-47
2023/05/22 08:51:01;;;;;;;7.60;4.17;;;31.20;99.90;;;;;;5017021;28;20231;-47
2023/05/22 08:53:29;;;;;;;11.30;4.00;;;31.20;99.90;;;;;;5019696;28;20469;-48
2023/05/22 08:55:55;;;;;;;4.40;3.80;;;31.50;99.90;;;;;;5018475;28;20460;-48
2023/05/22 08:58:21;;;;;;;5.10;3.80;;;31.80;99.90;;;;;;5016231;28;20958;-48
2023/05/22 09:00:48;;;;;;;6.77;3.87;;;32.20;99.90;;;;;;5017198;28;20751;-48
2023/05/22 09:03:14;;;;;;;6.50;3.77;;;32.30;99.90;;;;;;5019811;28;20438;-48
2023/05/22 09:05:40;;;;;;;8.50;3.90;;;32.50;99.90;;;;;;5024263;28;20521;-48
2023/05/22 09:08:07;;;;;;;6.93;4.07;;;32.10;99.90;;;;;;5025056;28;20458;-49
2023/05/22 09:10:33;;;;;;;21.30;19.10;;;31.30;99.90;;;;;;5027182;28;20512;-48
2023/05/22 09:12:59;;;;;;;6.40;5.80;;;30.80;99.90;;;;;;5022370;28;20443;-48
2023/05/22 09:15:31;;;;;;;6.57;5.30;;;30.60;99.90;;;;;;5018243;28;20446;-48
2023/05/22 09:17:57;;;;;;;8.47;5.47;;;30.20;99.90;;;;;;5017787;28;20802;-48
2023/05/22 09:20:23;;;;;;;8.50;4.40;;;29.60;99.90;;;;;;5016376;28;20561;-48
2023/05/22 09:22:49;;;;;;;5.87;4.47;;;29.40;99.90;;;;;;5016356;28;20950;-48
2023/05/22 09:25:18;;;;;;;10.60;4.23;;;29.40;99.90;;;;;;5019655;28;20224;-48
2023/05/22 09:27:45;;;;;;;5.00;3.90;;;29.20;99.90;;;;;;5019093;28;20215;-48
2023/05/22 09:30:14;;;;;;;8.45;3.90;;;29.10;99.90;;;;;;5018526;28;20479;-49
2023/05/22 09:32:40;;;;;;;6.60;4.47;;;28.80;99.90;;;;;;5021495;28;20192;-47
2023/05/22 09:35:06;;;;;;;4.43;4.03;;;28.80;99.90;;;;;;5017508;28;20641;-48
2023/05/22 09:37:34;;;;;;;5.53;4.23;;;29.00;99.90;;;;;;5020741;28;20187;-48
2023/05/22 09:40:04;;;;;;;7.00;4.43;;;29.20;99.90;;;;;;5020792;28;20446;-48
2023/05/22 09:42:32;;;;;;;6.97;4.23;;;29.50;99.90;;;;;;5020152;28;20522;-49
2023/05/22 09:45:05;;;;;;;5.63;4.10;;;29.80;99.90;;;;;;5021217;28;20481;-47
2023/05/22 09:47:32;;;;;;;5.70;4.20;;;30.00;99.90;;;;;;5021263;28;20438;-48
2023/05/22 09:54:36;;;;;;;4.43;3.70;;;30.20;99.90;;;;;;5184158;23;21614;-48
2023/05/22 09:57:05;;;;;;;9.67;4.37;;;30.40;99.90;;;;;;4976503;28;20443;-48
2023/05/22 09:59:33;;;;;;;5.83;3.73;;;30.90;99.90;;;;;;4977412;28;20820;-48
2023/05/22 10:02:00;;;;;;;9.40;4.20;;;31.40;99.90;;;;;;4977639;28;20503;-47
2023/05/22 10:04:29;;;;;;;8.30;3.93;;;31.60;99.90;;;;;;4974460;28;20487;-49
2023/05/22 10:06:58;;;;;;;7.30;4.40;;;32.30;99.90;;;;;;4981190;28;20444;-48
2023/05/22 10:09:29;;;;;;;7.47;3.77;;;33.00;99.90;;;;;;4975307;28;20497;-49
2023/05/22 10:11:57;;;;;;;9.87;4.23;;;33.30;99.90;;;;;;4975206;28;20441;-48
2023/05/22 10:14:24;;;;;;;4.57;3.60;;;33.60;99.90;;;;;;4974567;28;20452;-48
2023/05/22 10:16:50;;;;;;;4.07;3.77;;;33.30;99.90;;;;;;4976951;28;20428;-48
2023/05/22 10:19:16;;;;;;;9.20;4.10;;;33.60;99.90;;;;;;4981155;28;20958;-47
2023/05/22 10:21:44;;;;;;;5.70;3.70;;;33.60;99.90;;;;;;4975133;28;20411;-47
2023/05/22 10:24:11;;;;;;;10.23;3.87;;;33.60;99.90;;;;;;4977837;28;20708;-48
2023/05/22 10:26:37;;;;;;;4.53;3.93;;;33.60;99.90;;;;;;4973961;28;20453;-49
2023/05/22 10:29:19;;;;;;;5.70;3.87;;;33.70;99.90;;;;;;4974915;28;20774;-47
2023/05/22 10:31:56;;;;;;;7.57;4.00;;;33.50;99.90;;;;;;4974498;28;20509;-48
2023/05/22 10:34:37;;;;;;;6.40;4.43;;;33.30;99.90;;;;;;4974653;28;20444;-47
2023/05/22 10:37:44;;;;;;;5.87;4.30;;;33.00;99.90;;;;;;4977597;28;20447;-47
2023/05/22 10:40:14;;;;;;;13.17;4.10;;;32.70;99.90;;;;;;4971200;28;20444;-47
2023/05/22 10:42:40;;;;;;;5.53;4.20;;;32.60;99.90;;;;;;4978278;28;20495;-48
2023/05/22 10:45:06;;;;;;;6.40;4.20;;;32.30;99.90;;;;;;4974475;28;20471;-58
2023/05/22 10:47:32;;;;;;;5.77;4.40;;;31.90;99.90;;;;;;4981160;28;20526;-58
2023/05/22 10:50:09;;;;;;;6.37;4.53;;;31.50;99.90;;;;;;4978236;28;20923;-58
2023/05/22 10:52:36;;;;;;;13.10;4.07;;;30.90;99.90;;;;;;4981021;28;20648;-57
2023/05/22 10:55:08;;;;;;;4.97;4.57;;;30.40;99.90;;;;;;4985061;28;20872;-57
2023/05/22 10:57:39;;;;;;;6.03;4.23;;;30.20;99.90;;;;;;5005704;28;20478;-55
2023/05/22 11:00:14;;;;;;;4.57;4.17;;;29.70;99.90;;;;;;5004253;28;20530;-57
2023/05/22 11:02:42;;;;;;;8.57;4.37;;;29.60;99.90;;;;;;5002124;28;21012;-57
2023/05/22 11:05:24;;;;;;;7.27;4.90;;;29.40;99.90;;;;;;5005259;28;20497;-56
2023/05/22 11:07:49;;;;;;;8.63;4.70;;;29.20;99.90;;;;;;5004503;28;20444;-57
2023/05/22 11:10:25;;;;;;;4.23;3.83;;;29.00;99.90;;;;;;5003752;28;20533;-57
2023/05/22 11:13:10;;;;;;;6.57;4.30;;;29.10;99.90;;;;;;5005725;28;20190;-57
2023/05/22 11:15:35;;;;;;;5.90;4.27;;;29.10;99.90;;;;;;5005148;28;20431;-57
2023/05/22 11:18:04;;;;;;;7.20;4.10;;;29.40;99.90;;;;;;5002976;28;20434;-57
2023/05/22 11:20:36;;;;;;;6.37;4.00;;;29.40;99.90;;;;;;5005283;28;20199;-56
2023/05/22 11:23:05;;;;;;;5.60;4.40;;;29.60;99.90;;;;;;5005583;28;20444;-57
2023/05/22 11:25:36;;;;;;;8.30;4.47;;;30.30;99.90;;;;;;5002017;28;20872;-57
2023/05/22 11:28:04;;;;;;;6.83;4.40;;;30.80;99.90;;;;;;5005290;28;20566;-57
2023/05/22 11:30:30;;;;;;;11.63;5.07;;;30.90;99.90;;;;;;5002065;28;20443;-57
2023/05/22 11:32:57;;;;;;;11.13;4.57;;;31.30;99.90;;;;;;5006050;28;20446;-55
2023/05/22 11:35:23;;;;;;;8.93;5.07;;;31.60;99.90;;;;;;5006330;28;20189;-57
2023/05/22 11:37:50;;;;;;;7.53;4.17;;;31.30;99.90;;;;;;5004017;28;20522;-57
2023/05/22 11:40:19;;;;;;;10.40;5.43;;;31.30;99.90;;;;;;5004148;28;20185;-54
2023/05/22 11:42:46;;;;;;;9.60;4.30;;;31.40;99.90;;;;;;5008509;28;20441;-57
2023/05/22 11:45:11;;;;;;;5.37;4.33;;;31.50;99.90;;;;;;5004229;28;20478;-56
2023/05/22 11:47:37;;;;;;;5.30;4.27;;;31.40;99.90;;;;;;5002257;28;20522;-57
2023/05/22 11:50:05;;;;;;;7.83;4.23;;;31.40;99.90;;;;;;5003138;28;20211;-57
2023/05/22 11:52:32;;;;;;;8.43;4.73;;;31.40;99.90;;;;;;5003816;28;20666;-57
2023/05/22 11:54:58;;;;;;;5.40;4.77;;;31.60;99.90;;;;;;5001436;28;20478;-57
2023/05/22 11:57:24;;;;;;;9.33;4.67;;;31.70;99.90;;;;;;5004437;28;20442;-53
2023/05/22 11:59:49;;;;;;;7.20;4.27;;;32.10;99.90;;;;;;5001790;28;20448;-58
2023/05/22 12:02:15;;;;;;;6.87;4.50;;;32.60;99.90;;;;;;5004631;28;20888;-57
2023/05/22 12:04:41;;;;;;;4.47;4.10;;;33.10;99.90;;;;;;5001336;28;20699;-57
2023/05/22 12:07:07;;;;;;;13.37;4.50;;;33.40;99.90;;;;;;5004325;28;20586;-56
2023/05/22 12:09:33;;;;;;;11.80;4.40;;;33.50;99.90;;;;;;5002302;28;20185;-57
2023/05/22 12:11:59;;;;;;;10.13;4.30;;;33.40;99.90;;;;;;5002837;28;20450;-57
2023/05/22 12:14:30;;;;;;;5.20;4.37;;;32.70;99.90;;;;;;5003644;28;20189;-56
2023/05/22 12:16:57;;;;;;;5.80;4.30;;;32.60;99.90;;;;;;5001679;28;20193;-57
2023/05/22 12:19:24;;;;;;;4.73;4.23;;;32.30;99.90;;;;;;5004753;28;20454;-57
2023/05/22 12:21:50;;;;;;;5.67;4.90;;;32.20;99.90;;;;;;5001707;28;20782;-58
2023/05/22 12:24:22;;;;;;;8.30;4.57;;;32.40;99.90;;;;;;5003879;28;20438;-57
2023/05/22 12:26:51;;;;;;;9.33;4.70;;;32.30;99.90;;;;;;5003708;28;20445;-55
2023/05/22 12:29:20;;;;;;;5.37;4.27;;;31.90;99.90;;;;;;5001553;28;20459;-57
2023/05/22 12:31:46;;;;;;;6.40;4.00;;;31.80;99.90;;;;;;5003529;28;20487;-57
2023/05/22 12:34:12;;;;;;;7.27;4.30;;;32.40;99.90;;;;;;5001254;28;20518;-57
2023/05/22 12:36:40;;;;;;;5.83;4.10;;;33.30;99.90;;;;;;5000929;28;20670;-57
2023/05/22 12:39:16;;;;;;;6.70;4.27;;;34.00;99.90;;;;;;5003149;28;20468;-57
2023/05/22 12:41:43;;;;;;;6.73;4.00;;;34.40;99.90;;;;;;5003198;28;20444;-58
2023/05/22 12:44:09;;;;;;;8.30;4.20;;;34.70;99.90;;;;;;5002830;28;20491;-57
2023/05/22 12:46:35;;;;;;;6.00;4.50;;;34.00;99.90;;;;;;5001332;28;20483;-58
2023/05/22 12:49:01;;;;;;;4.10;3.70;;;33.70;99.90;;;;;;5000555;28;20427;-57
2023/05/22 12:51:28;;;;;;;6.70;4.43;;;33.40;99.90;;;;;;5002721;28;20444;-58